Time;durP1;ratioP1;P1;durP2;ratioP2;P2;SDS_P1;SDS_P2;PMS_P1;PMS_P2;Temp;Humidity;BMP_temperature;BMP_pressure;BME280_temperature;BME280_humidity;BME280_pressure;Samples;Min_cycle;Max_cycle;Signal;HPM_P1;HPM_P2
2022/07/03 00:01:27;;;;;;;2.05;1.10;;;23.70;99.90;;;;;;4159545;28;20722;-80
2022/07/03 00:03:30;;;;;;;2.25;1.50;;;23.60;99.90;;;;;;4155537;28;20268;-79
2022/07/03 00:05:32;;;;;;;1.85;1.20;;;23.60;99.90;;;;;;4152403;28;20283;-79
2022/07/03 00:07:34;;;;;;;1.83;1.30;;;23.60;99.90;;;;;;4162987;28;20262;-79
2022/07/03 00:09:38;;;;;;;2.13;1.40;;;23.60;99.90;;;;;;4158635;28;20239;-79
2022/07/03 00:11:41;;;;;;;1.63;1.38;;;23.60;99.90;;;;;;4153983;28;20220;-79
2022/07/03 00:13:43;;;;;;;2.08;1.15;;;23.60;99.90;;;;;;4162793;28;20236;-79
2022/07/03 00:15:46;;;;;;;3.08;1.40;;;23.60;99.90;;;;;;4151906;28;20253;-79
2022/07/03 00:17:48;;;;;;;1.55;0.95;;;23.60;99.90;;;;;;4154440;28;20217;-79
2022/07/03 00:19:51;;;;;;;1.80;1.23;;;23.60;99.90;;;;;;4165106;28;20209;-79
2022/07/03 00:21:57;;;;;;;1.33;1.10;;;23.60;99.90;;;;;;4151449;28;20271;-79
2022/07/03 00:24:04;;;;;;;2.55;1.30;;;23.60;99.90;;;;;;4156680;28;20606;-79
2022/07/03 00:26:09;;;;;;;1.75;1.10;;;23.60;99.90;;;;;;4166068;28;20243;-79
2022/07/03 00:28:12;;;;;;;1.92;1.15;;;23.60;99.90;;;;;;4155960;28;20232;-79
2022/07/03 00:30:14;;;;;;;2.22;1.20;;;23.60;99.90;;;;;;4152265;28;20271;-79
2022/07/03 00:32:25;;;;;;;1.80;1.13;;;23.50;99.90;;;;;;4158324;28;20221;-79
2022/07/03 00:34:28;;;;;;;2.55;1.38;;;23.50;99.90;;;;;;4165796;28;20224;-79
2022/07/03 00:36:35;;;;;;;2.92;1.23;;;23.60;99.90;;;;;;4161929;28;20275;-79
2022/07/03 00:38:38;;;;;;;1.85;1.23;;;23.60;99.90;;;;;;4153090;28;20643;-79
2022/07/03 00:40:41;;;;;;;1.25;1.00;;;23.50;99.90;;;;;;4150088;28;20213;-79
2022/07/03 00:42:51;;;;;;;1.52;1.20;;;23.50;99.90;;;;;;4154572;28;20275;-79
2022/07/03 00:44:55;;;;;;;1.50;1.20;;;23.60;99.90;;;;;;4157744;28;20279;-79
2022/07/03 00:47:00;;;;;;;1.48;1.20;;;23.50;99.90;;;;;;4153879;28;20271;-79
2022/07/03 00:49:06;;;;;;;2.80;1.10;;;23.50;99.90;;;;;;4153250;28;20221;-79
2022/07/03 00:51:15;;;;;;;2.42;1.02;;;23.50;99.90;;;;;;4159499;28;20259;-79
2022/07/03 00:53:29;;;;;;;1.15;0.90;;;23.50;99.90;;;;;;4161896;28;20220;-79
2022/07/03 00:55:35;;;;;;;1.60;1.05;;;23.50;99.90;;;;;;4149764;28;20755;-79
2022/07/03 00:57:46;;;;;;;2.08;1.10;;;23.50;99.90;;;;;;4152141;28;20212;-79
2022/07/03 00:59:48;;;;;;;1.17;1.00;;;23.50;99.90;;;;;;4165307;28;20236;-79
2022/07/03 01:01:59;;;;;;;1.83;1.20;;;23.50;99.90;;;;;;4162721;28;20594;-79
2022/07/03 01:04:11;;;;;;;1.90;1.20;;;23.50;99.90;;;;;;4149836;28;20279;-79
2022/07/03 01:06:16;;;;;;;3.00;1.27;;;23.50;99.90;;;;;;4150726;28;20331;-80
2022/07/03 01:08:26;;;;;;;1.35;1.05;;;23.50;99.90;;;;;;4157538;28;20237;-79
2022/07/03 01:10:38;;;;;;;1.95;1.20;;;23.50;99.90;;;;;;4141300;28;20565;-79
2022/07/03 01:12:55;;;;;;;1.92;1.20;;;23.50;99.90;;;;;;4134920;28;20218;-79
2022/07/03 01:15:05;;;;;;;2.03;1.08;;;23.50;99.90;;;;;;4145497;28;20353;-79
2022/07/03 01:17:17;;;;;;;1.55;1.10;;;23.60;99.90;;;;;;4142414;28;20221;-79
2022/07/03 01:19:41;;;;;;;2.88;1.50;;;23.50;99.90;;;;;;4133038;28;20300;-80
2022/07/03 01:21:52;;;;;;;1.75;1.15;;;23.50;99.90;;;;;;4147559;28;20217;-79
2022/07/03 01:24:18;;;;;;;2.05;1.20;;;23.50;99.90;;;;;;4148621;28;20279;-79
2022/07/03 01:26:25;;;;;;;1.33;0.80;;;23.50;99.90;;;;;;4131413;28;20220;-79
2022/07/03 01:28:27;;;;;;;2.45;1.20;;;23.50;99.90;;;;;;4148496;28;20255;-79
2022/07/03 01:30:32;;;;;;;1.98;1.17;;;23.40;99.90;;;;;;4140030;28;20218;-79
2022/07/03 01:32:43;;;;;;;1.65;1.05;;;23.50;99.90;;;;;;4140477;28;20267;-79
2022/07/03 01:34:52;;;;;;;1.58;1.10;;;23.40;99.90;;;;;;4140999;28;20288;-78
2022/07/03 01:36:58;;;;;;;2.13;1.20;;;23.50;99.90;;;;;;4137646;28;20248;-79
2022/07/03 01:39:03;;;;;;;1.45;1.25;;;23.50;99.90;;;;;;4133541;28;20268;-79
2022/07/03 01:41:07;;;;;;;1.58;1.05;;;23.50;99.90;;;;;;4137617;28;20229;-79
2022/07/03 01:43:13;;;;;;;1.60;1.20;;;23.40;99.90;;;;;;4141407;28;20328;-79
2022/07/03 01:45:16;;;;;;;1.65;1.05;;;23.40;99.90;;;;;;4148459;28;20637;-79
2022/07/03 01:47:19;;;;;;;1.20;1.10;;;23.50;99.90;;;;;;4148027;28;20636;-79
2022/07/03 01:49:22;;;;;;;2.03;1.30;;;23.40;99.90;;;;;;4148255;28;20209;-79
2022/07/03 01:51:25;;;;;;;1.80;1.05;;;23.40;99.90;;;;;;4140236;28;20225;-78
2022/07/03 01:53:30;;;;;;;1.25;1.00;;;23.40;99.90;;;;;;4137590;28;20221;-79
2022/07/03 01:55:34;;;;;;;2.13;0.90;;;23.40;99.90;;;;;;4135538;28;20225;-79
2022/07/03 01:57:42;;;;;;;2.13;1.17;;;23.40;99.90;;;;;;4145694;28;20287;-80
2022/07/03 01:59:46;;;;;;;1.58;1.20;;;23.40;99.90;;;;;;4139640;28;20705;-79
2022/07/03 02:01:53;;;;;;;1.83;1.20;;;23.40;99.90;;;;;;4143392;28;20263;-79
2022/07/03 02:04:03;;;;;;;1.52;1.17;;;23.40;99.90;;;;;;4142459;28;20214;-79
2022/07/03 02:06:08;;;;;;;1.92;1.20;;;23.40;99.90;;;;;;4132020;28;20287;-79
2022/07/03 02:08:28;;;;;;;1.38;1.00;;;23.40;99.90;;;;;;4139937;28;20309;-79
2022/07/03 02:10:36;;;;;;;3.85;1.42;;;23.40;99.90;;;;;;4143388;28;20210;-79
2022/07/03 02:12:47;;;;;;;2.35;1.50;;;23.40;99.90;;;;;;4134321;28;20283;-79
2022/07/03 02:15:03;;;;;;;1.08;0.70;;;23.40;99.90;;;;;;4143684;28;20657;-78
2022/07/03 02:17:17;;;;;;;1.77;0.93;;;23.30;99.90;;;;;;4137448;28;21032;-79
2022/07/03 02:19:22;;;;;;;1.23;1.10;;;23.30;99.90;;;;;;4148145;28;20240;-79
2022/07/03 02:21:28;;;;;;;2.28;1.30;;;23.40;99.90;;;;;;4133376;28;20256;-79
2022/07/03 02:23:33;;;;;;;1.02;0.93;;;23.30;99.90;;;;;;4135264;28;20626;-79
2022/07/03 02:25:36;;;;;;;1.33;1.00;;;23.30;99.90;;;;;;4148116;28;20363;-79
2022/07/03 02:27:44;;;;;;;1.58;1.20;;;23.30;99.90;;;;;;4139152;28;20608;-78
2022/07/03 02:29:51;;;;;;;1.65;0.98;;;23.30;99.90;;;;;;4133219;28;20205;-79
2022/07/03 02:31:58;;;;;;;1.40;0.80;;;23.30;99.90;;;;;;4136855;28;20236;-79
2022/07/03 02:34:02;;;;;;;1.70;1.20;;;23.40;99.90;;;;;;4145865;28;20275;-79
2022/07/03 02:36:10;;;;;;;1.10;1.00;;;23.30;99.90;;;;;;4141732;28;20246;-79
2022/07/03 02:38:17;;;;;;;1.05;0.95;;;23.30;99.90;;;;;;4138873;28;20217;-79
2022/07/03 02:40:27;;;;;;;1.13;1.02;;;23.30;99.90;;;;;;4139873;28;20241;-79
2022/07/03 02:42:33;;;;;;;1.70;1.10;;;23.30;99.90;;;;;;4136583;28;20218;-79
2022/07/03 02:44:45;;;;;;;1.77;1.00;;;23.30;99.90;;;;;;4133301;28;20222;-79
2022/07/03 02:47:01;;;;;;;1.70;1.05;;;23.30;99.90;;;;;;4144024;28;20213;-79
2022/07/03 02:49:15;;;;;;;2.13;1.08;;;23.30;99.90;;;;;;4143737;28;20620;-79
2022/07/03 02:51:23;;;;;;;1.10;1.00;;;23.30;99.90;;;;;;4135824;28;20220;-78
2022/07/03 02:53:30;;;;;;;2.30;1.10;;;23.30;99.90;;;;;;4147462;28;20224;-79
2022/07/03 02:55:42;;;;;;;1.40;0.90;;;23.30;99.90;;;;;;4145701;28;20224;-79
2022/07/03 02:57:45;;;;;;;1.23;1.00;;;23.30;99.90;;;;;;4135613;28;20285;-78
2022/07/03 02:59:55;;;;;;;1.50;1.00;;;23.30;99.90;;;;;;4141423;28;20595;-79
2022/07/03 03:02:07;;;;;;;2.33;1.17;;;23.30;99.90;;;;;;4143980;28;20262;-78
2022/07/03 03:04:15;;;;;;;1.55;1.10;;;23.30;99.90;;;;;;4133772;28;20217;-78
2022/07/03 03:06:22;;;;;;;1.13;0.90;;;23.30;99.90;;;;;;4136226;28;20221;-79
2022/07/03 03:08:33;;;;;;;1.60;1.13;;;23.30;99.90;;;;;;4140247;28;20308;-78
2022/07/03 03:10:37;;;;;;;1.35;0.93;;;23.30;99.90;;;;;;4154075;28;20271;-79
2022/07/03 03:12:42;;;;;;;1.95;0.98;;;23.30;99.90;;;;;;4150065;28;20220;-79
2022/07/03 03:14:48;;;;;;;1.35;0.90;;;23.30;99.90;;;;;;4147601;28;20264;-79
2022/07/03 03:16:54;;;;;;;1.75;0.95;;;23.30;99.90;;;;;;4157345;28;20899;-79
2022/07/03 03:18:57;;;;;;;1.08;0.95;;;23.30;99.90;;;;;;4154961;28;20224;-79
2022/07/03 03:21:01;;;;;;;1.10;1.00;;;23.30;99.90;;;;;;4151565;28;20272;-79
2022/07/03 03:23:12;;;;;;;1.30;0.90;;;23.30;99.90;;;;;;4163129;28;20286;-79
2022/07/03 03:25:16;;;;;;;1.67;0.90;;;23.20;99.90;;;;;;4163352;28;20719;-79
2022/07/03 03:27:19;;;;;;;2.78;1.02;;;23.20;99.90;;;;;;4155947;28;20247;-79
2022/07/03 03:29:22;;;;;;;1.58;0.90;;;23.20;99.90;;;;;;4152953;28;20221;-79
2022/07/03 03:31:24;;;;;;;1.73;1.15;;;23.20;99.90;;;;;;4149650;28;20213;-79
2022/07/03 03:33:27;;;;;;;2.10;1.20;;;23.20;99.90;;;;;;4152568;28;20273;-79
2022/07/03 03:35:31;;;;;;;1.10;0.98;;;23.20;99.90;;;;;;4156543;28;20336;-79
2022/07/03 03:37:33;;;;;;;1.30;1.15;;;23.20;99.90;;;;;;4152674;28;20220;-79
2022/07/03 03:39:36;;;;;;;1.17;1.08;;;23.20;99.90;;;;;;4149444;28;20208;-79
2022/07/03 03:41:39;;;;;;;2.28;1.00;;;23.20;99.90;;;;;;4150283;28;20290;-79
2022/07/03 03:43:41;;;;;;;2.70;1.05;;;23.20;99.90;;;;;;4155409;28;20258;-79
2022/07/03 03:45:44;;;;;;;1.83;1.00;;;23.20;99.90;;;;;;4163620;28;20209;-80
2022/07/03 03:47:46;;;;;;;1.70;0.80;;;23.20;99.90;;;;;;4148169;28;20267;-79
2022/07/03 03:49:48;;;;;;;1.48;1.10;;;23.20;99.90;;;;;;4153443;28;20619;-79
2022/07/03 03:51:53;;;;;;;1.30;0.80;;;23.20;99.90;;;;;;4159199;28;20266;-79
2022/07/03 03:53:55;;;;;;;1.17;0.93;;;23.20;99.90;;;;;;4155202;28;20287;-79
2022/07/03 03:56:02;;;;;;;1.83;1.02;;;23.20;99.90;;;;;;4151810;28;20265;-79
2022/07/03 03:58:05;;;;;;;2.22;0.90;;;23.20;99.90;;;;;;4156199;28;20263;-79
2022/07/03 04:00:08;;;;;;;1.17;0.98;;;23.20;99.90;;;;;;4157253;28;20228;-79
2022/07/03 04:02:12;;;;;;;2.97;1.17;;;23.20;99.90;;;;;;4159432;28;20223;-79
2022/07/03 04:04:17;;;;;;;1.02;0.93;;;23.20;99.90;;;;;;4152160;28;20272;-79
2022/07/03 04:06:20;;;;;;;1.63;1.20;;;23.10;99.90;;;;;;4147370;28;20221;-79
2022/07/03 04:08:26;;;;;;;2.10;1.30;;;23.20;99.90;;;;;;4156037;28;20216;-78
2022/07/03 04:10:28;;;;;;;1.10;0.95;;;23.10;99.90;;;;;;4158128;28;20578;-79
2022/07/03 04:12:31;;;;;;;0.85;0.80;;;23.10;99.90;;;;;;4153082;28;20221;-79
2022/07/03 04:14:33;;;;;;;1.08;0.98;;;23.10;99.90;;;;;;4149860;28;20209;-79
2022/07/03 04:16:35;;;;;;;1.98;1.05;;;23.10;99.90;;;;;;4153467;28;20220;-79
2022/07/03 04:18:37;;;;;;;1.98;0.95;;;23.10;99.90;;;;;;4161456;28;20228;-79
2022/07/03 04:20:40;;;;;;;1.45;1.10;;;23.10;99.90;;;;;;4153677;28;20320;-79
2022/07/03 04:22:42;;;;;;;1.33;0.90;;;23.10;99.90;;;;;;4150943;28;20260;-79
2022/07/03 04:24:46;;;;;;;1.83;1.00;;;23.10;99.90;;;;;;4152955;28;20262;-77
2022/07/03 04:26:48;;;;;;;2.67;1.02;;;23.10;99.90;;;;;;4163267;28;20224;-77
2022/07/03 04:28:51;;;;;;;1.27;1.10;;;23.10;99.90;;;;;;4157747;28;20217;-77
2022/07/03 04:30:53;;;;;;;1.42;1.10;;;23.10;99.90;;;;;;4154865;28;20221;-77
2022/07/03 04:32:55;;;;;;;1.33;1.00;;;23.10;99.90;;;;;;4158418;28;20278;-77
2022/07/03 04:34:57;;;;;;;2.47;1.00;;;23.10;99.90;;;;;;4150423;28;20229;-77
2022/07/03 04:37:00;;;;;;;1.33;1.10;;;23.10;99.90;;;;;;4161867;28;20228;-77
2022/07/03 04:39:02;;;;;;;1.08;0.98;;;23.10;99.90;;;;;;4163781;28;20349;-77
2022/07/03 04:41:06;;;;;;;0.80;0.80;;;23.10;99.90;;;;;;4153577;28;20639;-77
2022/07/03 04:43:08;;;;;;;2.40;1.20;;;23.10;99.90;;;;;;4149131;28;20221;-77
2022/07/03 04:45:10;;;;;;;1.38;0.90;;;23.10;99.90;;;;;;4152882;28;20552;-77
2022/07/03 04:47:14;;;;;;;1.05;0.88;;;23.00;99.90;;;;;;4154883;28;20228;-77
2022/07/03 04:49:17;;;;;;;1.45;1.00;;;23.10;99.90;;;;;;4159037;28;20213;-77
2022/07/03 04:51:19;;;;;;;1.20;0.77;;;23.10;99.90;;;;;;4162010;28;20224;-77
2022/07/03 04:53:21;;;;;;;1.10;0.90;;;23.10;99.90;;;;;;4148172;28;20221;-77
2022/07/03 04:55:24;;;;;;;1.48;1.10;;;23.10;99.90;;;;;;4153369;28;20533;-77
2022/07/03 04:57:28;;;;;;;1.48;1.05;;;23.10;99.90;;;;;;4154629;28;20221;-77
2022/07/03 04:59:30;;;;;;;1.33;0.90;;;23.10;99.90;;;;;;4150084;28;20634;-77
2022/07/03 05:01:32;;;;;;;1.70;1.10;;;23.00;99.90;;;;;;4149505;28;20644;-77
2022/07/03 05:03:35;;;;;;;1.13;0.80;;;23.00;99.90;;;;;;4158828;28;20244;-77
2022/07/03 05:05:37;;;;;;;1.10;0.90;;;23.10;99.90;;;;;;4155919;28;20274;-77
2022/07/03 05:07:39;;;;;;;1.73;0.85;;;23.10;99.90;;;;;;4155313;28;20632;-77
2022/07/03 05:09:42;;;;;;;1.38;1.00;;;23.10;99.90;;;;;;4150987;28;20302;-77
2022/07/03 05:11:44;;;;;;;0.82;0.77;;;23.00;99.90;;;;;;4163517;28;20212;-77
2022/07/03 05:13:47;;;;;;;1.40;0.90;;;23.10;99.90;;;;;;4158114;28;20247;-77
2022/07/03 05:15:50;;;;;;;2.08;1.23;;;23.10;99.90;;;;;;4152002;28;20290;-77
2022/07/03 05:17:52;;;;;;;1.85;0.98;;;23.10;99.90;;;;;;4148487;28;20217;-77
2022/07/03 05:22:11;;;;;;;1.08;0.80;;;23.10;99.90;;;;;;4157380;28;20290;-77
2022/07/03 05:24:13;;;;;;;1.40;0.93;;;23.10;99.90;;;;;;4159924;28;20209;-77
2022/07/03 05:26:16;;;;;;;1.13;0.82;;;23.10;99.90;;;;;;4163200;28;20250;-77
2022/07/03 05:28:18;;;;;;;1.63;1.00;;;23.10;99.90;;;;;;4160260;28;20283;-77
2022/07/03 05:30:23;;;;;;;1.00;0.80;;;23.10;99.90;;;;;;4149844;28;20233;-76
2022/07/03 05:32:25;;;;;;;2.10;1.00;;;23.10;99.90;;;;;;4148205;28;20275;-76
2022/07/03 05:34:27;;;;;;;1.55;1.00;;;23.10;99.90;;;;;;4153744;28;20217;-76
2022/07/03 05:36:30;;;;;;;2.53;0.95;;;23.10;99.90;;;;;;4153049;28;20275;-77
2022/07/03 05:40:53;;;;;;;1.40;1.00;;;23.00;99.90;;;;;;4147843;28;20224;-77
2022/07/03 05:42:55;;;;;;;1.13;0.73;;;23.10;99.90;;;;;;4160033;28;20307;-76
2022/07/03 05:44:57;;;;;;;1.80;0.95;;;23.10;99.90;;;;;;4155113;28;20283;-77
2022/07/03 05:47:01;;;;;;;1.08;0.80;;;23.10;99.90;;;;;;4151595;28;20221;-77
2022/07/03 05:49:03;;;;;;;1.75;0.80;;;23.10;99.90;;;;;;4148325;28;20221;-77
2022/07/03 05:51:06;;;;;;;1.85;0.95;;;23.10;99.90;;;;;;4159626;28;20665;-77
2022/07/03 05:53:08;;;;;;;1.00;0.75;;;23.00;99.90;;;;;;4155908;28;21006;-76
2022/07/03 05:55:10;;;;;;;1.00;0.93;;;23.00;99.90;;;;;;4152900;28;20268;-76
2022/07/03 05:57:13;;;;;;;1.20;1.00;;;23.00;99.90;;;;;;4149679;28;20217;-77
2022/07/03 05:59:15;;;;;;;1.98;1.02;;;23.00;99.90;;;;;;4149184;28;20274;-77
2022/07/03 06:01:17;;;;;;;1.23;1.00;;;23.00;99.90;;;;;;4156564;28;20245;-77
2022/07/03 06:03:21;;;;;;;1.58;0.93;;;23.00;99.90;;;;;;4153810;28;20379;-76
2022/07/03 06:05:23;;;;;;;1.27;0.80;;;23.10;99.90;;;;;;4151072;28;20980;-77
2022/07/03 06:07:26;;;;;;;0.88;0.70;;;23.00;99.90;;;;;;4148432;28;20267;-77
2022/07/03 06:09:28;;;;;;;1.45;0.90;;;23.10;99.90;;;;;;4157828;28;20236;-76
2022/07/03 06:11:31;;;;;;;0.90;0.70;;;23.00;99.90;;;;;;4155631;28;20216;-77
2022/07/03 06:13:34;;;;;;;0.98;0.77;;;23.00;99.90;;;;;;4154369;28;20217;-76
2022/07/03 06:15:36;;;;;;;1.80;1.00;;;23.10;99.90;;;;;;4151939;28;20273;-76
2022/07/03 06:17:38;;;;;;;1.10;1.00;;;23.10;99.90;;;;;;4157722;28;20196;-76
2022/07/03 06:19:42;;;;;;;2.20;1.00;;;23.10;99.90;;;;;;4153984;28;20242;-77
2022/07/03 06:21:45;;;;;;;1.05;0.95;;;23.00;99.90;;;;;;4148649;28;20278;-77
2022/07/03 06:23:47;;;;;;;1.52;0.90;;;23.10;99.90;;;;;;4158196;28;20263;-77
2022/07/03 06:25:50;;;;;;;1.02;0.70;;;23.00;99.90;;;;;;4156144;28;20672;-77
2022/07/03 06:27:52;;;;;;;2.20;1.00;;;23.10;99.90;;;;;;4155386;28;20216;-77
2022/07/03 06:29:54;;;;;;;3.30;1.10;;;23.00;99.90;;;;;;4149291;28;20271;-76
2022/07/03 06:31:57;;;;;;;1.85;0.80;;;23.00;99.90;;;;;;4151654;28;20258;-76
2022/07/03 06:33:59;;;;;;;1.88;0.80;;;23.10;99.90;;;;;;4161351;28;20212;-76
2022/07/03 06:36:03;;;;;;;1.17;0.98;;;23.10;99.90;;;;;;4158849;28;20224;-76
2022/07/03 06:38:05;;;;;;;2.05;0.85;;;23.00;99.90;;;;;;4149407;28;20268;-77
2022/07/03 06:40:09;;;;;;;1.30;0.77;;;23.10;99.90;;;;;;4146294;28;20291;-76
2022/07/03 06:42:11;;;;;;;1.23;0.90;;;23.00;99.90;;;;;;4153711;28;20943;-76
2022/07/03 06:44:14;;;;;;;2.30;1.27;;;23.10;99.90;;;;;;4156811;28;20260;-76
2022/07/03 06:46:16;;;;;;;2.00;0.82;;;23.10;99.90;;;;;;4151373;28;20213;-76
2022/07/03 06:48:18;;;;;;;1.40;0.85;;;23.00;99.90;;;;;;4145836;28;20220;-77
2022/07/03 06:50:20;;;;;;;1.55;0.85;;;23.00;99.90;;;;;;4155603;28;20221;-76
2022/07/03 06:52:24;;;;;;;2.05;0.90;;;23.10;99.90;;;;;;4157912;28;20212;-77
2022/07/03 06:54:26;;;;;;;3.20;0.93;;;23.00;99.90;;;;;;4151877;28;20275;-76
2022/07/03 06:56:29;;;;;;;2.17;1.10;;;23.10;99.90;;;;;;4148942;28;20221;-77
2022/07/03 06:58:31;;;;;;;1.30;1.00;;;23.00;99.90;;;;;;4151100;28;20229;-77
2022/07/03 07:00:33;;;;;;;1.60;0.93;;;23.10;99.90;;;;;;4154067;28;20611;-76
2022/07/03 07:02:35;;;;;;;1.45;1.00;;;23.10;99.90;;;;;;4152989;28;20290;-77
2022/07/03 07:04:38;;;;;;;1.42;0.95;;;23.00;99.90;;;;;;4150393;28;20599;-77
2022/07/03 07:06:40;;;;;;;1.60;1.00;;;23.00;99.90;;;;;;4154552;28;20616;-77
2022/07/03 07:08:44;;;;;;;1.75;0.80;;;23.00;99.90;;;;;;4161774;28;20248;-76
2022/07/03 07:10:46;;;;;;;1.58;0.90;;;23.10;99.90;;;;;;4158059;28;20632;-77
2022/07/03 07:12:49;;;;;;;1.77;1.00;;;23.10;99.90;;;;;;4150415;28;20580;-77
2022/07/03 07:14:51;;;;;;;1.10;0.80;;;23.10;99.90;;;;;;4155579;28;20275;-77
2022/07/03 07:16:53;;;;;;;1.85;0.80;;;23.10;99.90;;;;;;4145757;28;20218;-77
2022/07/03 07:18:56;;;;;;;1.42;0.70;;;23.10;99.90;;;;;;4149341;28;20221;-77
2022/07/03 07:20:58;;;;;;;1.27;0.80;;;23.10;99.90;;;;;;4146482;28;20217;-77
2022/07/03 07:23:00;;;;;;;1.55;0.90;;;23.10;99.90;;;;;;4152865;28;20324;-77
2022/07/03 07:25:05;;;;;;;1.45;0.80;;;23.10;99.90;;;;;;4154969;28;20225;-77
2022/07/03 07:27:07;;;;;;;1.65;1.10;;;23.10;99.90;;;;;;4150733;28;20228;-77
2022/07/03 07:29:09;;;;;;;2.17;0.82;;;23.10;99.90;;;;;;4147423;28;20228;-76
2022/07/03 07:31:12;;;;;;;1.23;0.80;;;23.10;99.90;;;;;;4157873;28;20225;-77
2022/07/03 07:33:14;;;;;;;1.45;0.80;;;23.10;99.90;;;;;;4149630;28;20212;-76
2022/07/03 07:35:16;;;;;;;1.80;0.80;;;23.10;99.90;;;;;;4151038;28;20271;-76
2022/07/03 07:37:19;;;;;;;1.15;0.80;;;23.10;99.90;;;;;;4148138;28;20358;-77
2022/07/03 07:39:21;;;;;;;2.45;1.00;;;23.10;99.90;;;;;;4158424;28;20578;-77
2022/07/03 07:41:25;;;;;;;1.38;0.95;;;23.10;99.90;;;;;;4161447;28;20255;-77
2022/07/03 07:43:27;;;;;;;1.25;0.80;;;23.10;99.90;;;;;;4161460;28;20232;-77
2022/07/03 07:45:29;;;;;;;1.63;0.90;;;23.10;99.90;;;;;;4148185;28;20216;-77
2022/07/03 07:47:32;;;;;;;1.38;0.98;;;23.10;99.90;;;;;;4147916;28;20229;-77
2022/07/03 07:49:34;;;;;;;2.17;1.17;;;23.10;99.90;;;;;;4155850;28;20221;-77
2022/07/03 07:51:36;;;;;;;1.48;0.98;;;23.10;99.90;;;;;;4152785;28;20219;-77
2022/07/03 07:53:39;;;;;;;1.33;0.90;;;23.10;99.90;;;;;;4146661;28;20208;-77
2022/07/03 07:55:41;;;;;;;0.90;0.80;;;23.10;99.90;;;;;;4149029;28;20213;-76
2022/07/03 07:57:45;;;;;;;1.10;0.90;;;23.10;99.90;;;;;;4161414;28;20213;-77
2022/07/03 07:59:50;;;;;;;2.00;0.80;;;23.10;99.90;;;;;;4156428;28;20228;-77
2022/07/03 08:06:32;;;;;;;1.10;0.80;;;23.10;99.90;;;;;;4160286;28;20208;-76
2022/07/03 08:08:34;;;;;;;0.95;0.70;;;23.10;99.90;;;;;;4154570;28;20303;-76
2022/07/03 08:10:38;;;;;;;1.10;0.90;;;23.10;99.90;;;;;;4151672;28;20252;-76
2022/07/03 08:12:41;;;;;;;1.52;0.65;;;23.10;99.90;;;;;;4149011;28;20275;-77
2022/07/03 08:14:44;;;;;;;0.90;0.68;;;23.10;99.90;;;;;;4163203;28;20251;-77
2022/07/03 08:16:47;;;;;;;2.17;0.90;;;23.20;99.90;;;;;;4158982;28;20212;-76
2022/07/03 08:18:49;;;;;;;1.27;0.80;;;23.20;99.90;;;;;;4152300;28;20209;-77
2022/07/03 08:20:51;;;;;;;1.80;0.90;;;23.20;99.90;;;;;;4149060;28;20302;-77
2022/07/03 08:22:54;;;;;;;2.85;1.08;;;23.20;99.90;;;;;;4159301;28;20288;-77
2022/07/03 08:24:57;;;;;;;1.05;0.77;;;23.20;99.90;;;;;;4156043;28;20222;-77
2022/07/03 08:27:00;;;;;;;2.40;0.73;;;23.20;99.90;;;;;;4152972;28;20358;-77
2022/07/03 08:29:02;;;;;;;1.52;1.00;;;23.20;99.90;;;;;;4150113;28;20267;-76
2022/07/03 08:31:06;;;;;;;1.73;0.82;;;23.20;99.90;;;;;;4155155;28;20221;-77
2022/07/03 08:33:09;;;;;;;2.25;0.90;;;23.20;99.90;;;;;;4156051;28;20221;-77
2022/07/03 08:35:48;;;;;;;1.23;0.65;;;23.20;99.90;;;;;;4163973;28;20992;-77
2022/07/03 08:37:51;;;;;;;0.93;0.70;;;23.20;99.90;;;;;;4156610;28;20212;-77
2022/07/03 08:39:54;;;;;;;3.22;0.70;;;23.20;99.90;;;;;;4163833;28;20271;-77
2022/07/03 08:41:57;;;;;;;1.17;0.80;;;23.20;99.90;;;;;;4163474;28;20263;-77
2022/07/03 08:44:00;;;;;;;1.42;1.00;;;23.20;99.90;;;;;;4163637;28;20240;-77
2022/07/03 08:46:03;;;;;;;1.50;0.90;;;23.30;99.90;;;;;;4164034;28;20220;-77
2022/07/03 08:48:08;;;;;;;1.52;0.93;;;23.30;99.90;;;;;;4161016;28;20278;-77
2022/07/03 08:50:14;;;;;;;1.95;0.82;;;23.20;99.90;;;;;;4160417;28;20270;-76
2022/07/03 08:52:17;;;;;;;1.05;0.70;;;23.30;99.90;;;;;;4163495;28;20653;-76
2022/07/03 08:54:20;;;;;;;1.40;0.75;;;23.30;99.90;;;;;;4163040;28;20220;-76
2022/07/03 08:56:23;;;;;;;1.48;0.80;;;23.30;99.90;;;;;;4159391;28;20217;-76
2022/07/03 08:58:29;;;;;;;0.70;0.60;;;23.30;99.90;;;;;;4161867;28;20216;-77
2022/07/03 09:00:33;;;;;;;1.52;0.98;;;23.30;99.90;;;;;;4163261;28;20220;-76
2022/07/03 09:02:40;;;;;;;1.58;0.73;;;23.30;99.90;;;;;;4159832;28;20216;-77
2022/07/03 09:04:45;;;;;;;1.08;0.90;;;23.40;99.90;;;;;;4160587;28;20636;-77
2022/07/03 09:06:48;;;;;;;1.58;0.70;;;23.40;99.90;;;;;;4162432;28;20614;-77
2022/07/03 09:08:51;;;;;;;2.72;0.77;;;23.40;99.90;;;;;;4163082;28;20236;-77
2022/07/03 09:10:53;;;;;;;3.33;0.88;;;23.40;99.90;;;;;;4154728;28;20268;-77
2022/07/03 09:12:56;;;;;;;1.70;0.90;;;23.40;99.90;;;;;;4161421;28;20298;-76
2022/07/03 09:14:58;;;;;;;1.10;0.70;;;23.40;99.90;;;;;;4156670;28;20225;-77
2022/07/03 09:17:01;;;;;;;1.65;0.95;;;23.40;99.90;;;;;;4160406;28;20224;-77
2022/07/03 09:19:04;;;;;;;1.25;0.80;;;23.40;99.90;;;;;;4163116;28;20224;-77
2022/07/03 09:21:11;;;;;;;0.85;0.70;;;23.40;99.90;;;;;;4162475;28;20266;-76
2022/07/03 09:23:15;;;;;;;0.98;0.80;;;23.50;99.90;;;;;;4154729;28;20368;-77
2022/07/03 09:25:17;;;;;;;2.30;0.82;;;23.50;99.90;;;;;;4163132;28;20228;-76
2022/07/03 09:27:21;;;;;;;0.93;0.70;;;23.50;99.90;;;;;;4163104;28;20228;-77
2022/07/03 09:29:23;;;;;;;1.20;0.73;;;23.50;99.90;;;;;;4163066;28;20286;-77
2022/07/03 09:31:27;;;;;;;1.30;0.80;;;23.50;99.90;;;;;;4158860;28;20367;-77
2022/07/03 09:33:30;;;;;;;1.23;0.90;;;23.60;99.90;;;;;;4155899;28;20221;-77
2022/07/03 09:35:32;;;;;;;2.00;0.80;;;23.50;99.90;;;;;;4152784;28;20221;-77
2022/07/03 09:37:36;;;;;;;1.25;0.80;;;23.60;99.90;;;;;;4149563;28;20216;-76
2022/07/03 09:39:39;;;;;;;1.05;0.80;;;23.60;99.90;;;;;;4156360;28;20208;-77
2022/07/03 09:41:53;;;;;;;1.55;0.80;;;23.60;99.90;;;;;;4156546;28;20270;-76
2022/07/03 09:43:55;;;;;;;1.50;0.90;;;23.60;99.90;;;;;;4150508;28;20224;-76
2022/07/03 09:45:59;;;;;;;2.65;1.10;;;23.60;99.90;;;;;;4146925;28;20354;-77
2022/07/03 09:48:04;;;;;;;2.05;1.02;;;23.70;99.90;;;;;;4152857;28;20224;-77
2022/07/03 09:50:11;;;;;;;1.85;0.65;;;23.60;99.90;;;;;;4157173;28;20220;-77
2022/07/03 09:52:28;;;;;;;1.30;0.88;;;23.70;99.90;;;;;;4150488;28;20614;-77
2022/07/03 09:54:32;;;;;;;1.02;0.70;;;23.70;99.90;;;;;;4147457;28;20220;-76
2022/07/03 09:56:36;;;;;;;2.42;0.90;;;23.70;99.90;;;;;;4151702;28;20201;-77
2022/07/03 09:58:39;;;;;;;1.55;0.77;;;23.70;99.90;;;;;;4159365;28;20608;-77
2022/07/03 10:00:42;;;;;;;1.58;0.90;;;23.70;99.90;;;;;;4151193;28;20217;-77
2022/07/03 10:02:58;;;;;;;1.13;0.80;;;23.70;99.90;;;;;;4148325;28;20359;-77
2022/07/03 10:05:13;;;;;;;1.25;0.77;;;23.70;99.90;;;;;;4158337;28;20248;-77
2022/07/03 10:07:15;;;;;;;1.15;0.90;;;23.70;99.90;;;;;;4154580;28;20228;-77
2022/07/03 10:09:20;;;;;;;2.53;1.13;;;23.70;99.90;;;;;;4152338;28;20283;-77
2022/07/03 10:11:24;;;;;;;0.93;0.68;;;23.70;99.90;;;;;;4148810;28;20225;-76
2022/07/03 10:13:26;;;;;;;1.00;0.80;;;23.70;99.90;;;;;;4156700;28;20669;-76
2022/07/03 10:15:30;;;;;;;1.52;1.10;;;23.70;99.90;;;;;;4156186;28;20221;-76
2022/07/03 10:17:33;;;;;;;1.35;0.85;;;23.70;99.90;;;;;;4153490;28;20221;-77
2022/07/03 10:19:40;;;;;;;2.55;0.80;;;23.70;99.90;;;;;;4148034;28;20235;-76
2022/07/03 10:21:44;;;;;;;1.42;0.90;;;23.70;99.90;;;;;;4148735;28;20216;-77
2022/07/03 10:23:47;;;;;;;2.35;1.20;;;23.70;99.90;;;;;;4157287;28;20715;-76
2022/07/03 10:25:49;;;;;;;1.63;0.65;;;23.70;99.90;;;;;;4153943;28;20640;-76
2022/07/03 10:27:53;;;;;;;1.13;0.90;;;23.80;99.90;;;;;;4155725;28;20212;-76
2022/07/03 10:29:56;;;;;;;1.65;0.60;;;23.70;99.90;;;;;;4151811;28;20205;-76
2022/07/03 10:31:58;;;;;;;1.65;0.77;;;23.80;99.90;;;;;;4162184;28;20641;-77
2022/07/03 10:34:01;;;;;;;1.63;0.95;;;23.70;99.90;;;;;;4161945;28;20642;-77
2022/07/03 10:36:05;;;;;;;1.17;0.75;;;23.80;99.90;;;;;;4156697;28;20224;-76
2022/07/03 10:38:30;;;;;;;0.95;0.70;;;23.80;99.90;;;;;;4161554;28;20224;-76
2022/07/03 10:45:29;;;;;;;1.65;0.70;;;23.80;99.90;;;;;;4156483;28;20205;-76
2022/07/03 10:47:45;;;;;;;1.38;0.73;;;23.80;99.90;;;;;;4151240;28;20258;-76
2022/07/03 10:50:01;;;;;;;1.95;1.10;;;23.80;99.90;;;;;;4150895;28;20259;-76
2022/07/03 10:52:06;;;;;;;0.73;0.70;;;23.80;99.90;;;;;;4158283;28;20251;-77
2022/07/03 10:54:19;;;;;;;1.33;0.82;;;23.80;99.90;;;;;;4154018;28;20220;-77
2022/07/03 10:56:21;;;;;;;1.17;0.80;;;23.80;99.90;;;;;;4149289;28;20213;-76
2022/07/03 10:58:28;;;;;;;2.88;1.00;;;23.80;99.90;;;;;;4147306;28;20660;-77
2022/07/03 11:00:31;;;;;;;0.93;0.68;;;23.80;99.90;;;;;;4158451;28;20225;-76
2022/07/03 11:02:35;;;;;;;1.52;0.80;;;23.80;99.90;;;;;;4152007;28;20638;-77
2022/07/03 11:05:07;;;;;;;1.48;0.75;;;23.80;99.90;;;;;;4156850;28;20332;-76